Time,TemperatureF,DewpointF,PressureIn,WindDirection,WindDirectionDegrees,WindSpeedMPH,WindSpeedGustMPH,Humidity,HourlyPrecipIn,Conditions,Clouds,dailyrainin,SoftwareType,DateUTC
2013-07-28 00:02:00,66.1,63.4,29.85,SSE,164,0.0,0.0,91,0.00,,,0.00,Wunderground v.1.15,2013-07-28 04:02:00,
2013-07-28 00:03:00,66.1,63.4,29.85,SSE,164,0.0,0.0,91,0.00,,,0.00,Wunderground v.1.15,2013-07-28 04:03:00,
2013-07-28 00:05:00,66.1,63.4,29.85,SSE,164,0.0,0.0,91,0.00,,,0.00,Wunderground v.1.15,2013-07-28 04:05:00,
2013-07-28 00:07:00,66.1,63.4,29.85,SSE,164,0.0,0.0,91,0.00,,,0.00,Wunderground v.1.15,2013-07-28 04:07:00,
2013-07-28 00:10:00,66.1,63.4,29.85,SSE,164,0.0,0.0,91,0.00,,,0.00,Wunderground v.1.15,2013-07-28 04:10:00,
2013-07-28 00:15:00,66.1,63.4,29.85,SSE,164,0.0,0.0,91,0.00,,,0.00,Wunderground v.1.15,2013-07-28 04:15:00,
2013-07-28 00:20:00,66.0,63.3,29.85,SSE,164,0.0,0.0,91,0.00,,,0.00,Wunderground v.1.15,2013-07-28 04:20:00,
2013-07-28 00:25:00,66.0,63.3,29.85,SSE,164,0.0,0.0,91,0.00,,,0.00,Wunderground v.1.15,2013-07-28 04:25:00,
2013-07-28 00:31:00,66.0,63.3,29.85,SSE,164,0.0,0.0,91,0.00,,,0.00,Wunderground v.1.15,2013-07-28 04:31:00,
2013-07-28 00:36:00,65.8,63.1,29.85,SSE,164,0.0,0.0,91,0.00,,,0.00,Wunderground v.1.15,2013-07-28 04:36:00,
2013-07-28 00:41:00,65.8,63.4,29.85,SSE,164,0.0,0.0,92,0.00,,,0.00,Wunderground v.1.15,2013-07-28 04:41:00,
2013-07-28 00:47:00,65.6,63.2,29.85,SSE,164,0.0,0.0,92,0.00,,,0.00,Wunderground v.1.15,2013-07-28 04:47:00,
2013-07-28 00:52:00,65.6,63.2,29.85,SSE,164,0.0,0.0,92,0.00,,,0.00,Wunderground v.1.15,2013-07-28 04:52:00,
2013-07-28 00:58:00,65.6,63.2,29.85,SSE,164,0.0,0.0,92,0.00,,,0.00,Wunderground v.1.15,2013-07-28 04:58:00,
2013-07-28 01:03:00,65.6,63.2,29.85,SSE,164,0.0,0.0,92,0.00,,,0.00,Wunderground v.1.15,2013-07-28 05:03:00,
2013-07-28 01:08:00,65.6,63.2,29.85,SSE,164,0.0,0.0,92,0.00,,,0.00,Wunderground v.1.15,2013-07-28 05:08:00,
2013-07-28 01:14:00,65.5,63.4,29.85,SSE,164,0.0,0.0,93,0.00,,,0.00,Wunderground v.1.15,2013-07-28 05:14:00,
2013-07-28 01:20:00,65.5,63.4,29.84,SSE,164,0.0,0.0,93,0.00,,,0.00,Wunderground v.1.15,2013-07-28 05:20:00,
2013-07-28 01:25:00,65.5,63.4,29.84,SSE,164,0.0,0.0,93,0.00,,,0.00,Wunderground v.1.15,2013-07-28 05:25:00,
2013-07-28 01:30:00,65.5,63.4,29.84,SSE,164,0.0,0.0,93,0.00,,,0.00,Wunderground v.1.15,2013-07-28 05:30:00,
2013-07-28 01:37:00,65.5,63.7,29.84,SSE,164,0.0,0.0,94,0.00,,,0.00,Wunderground v.1.15,2013-07-28 05:37:00,
2013-07-28 01:42:00,65.5,63.7,29.84,SSE,164,0.0,0.0,94,0.00,,,0.00,Wunderground v.1.15,2013-07-28 05:42:00,
2013-07-28 01:48:00,65.5,63.7,29.83,SSE,164,0.0,0.0,94,0.00,,,0.00,Wunderground v.1.15,2013-07-28 05:48:00,
2013-07-28 01:54:00,65.5,63.7,29.83,SSE,164,0.0,0.0,94,0.00,,,0.00,Wunderground v.1.15,2013-07-28 05:54:00,
2013-07-28 01:59:00,65.5,63.7,29.83,SSE,164,0.0,0.0,94,0.00,,,0.00,Wunderground v.1.15,2013-07-28 05:59:00,
2013-07-28 02:04:00,65.3,63.8,29.83,SSE,164,0.0,0.0,95,0.00,,,0.00,Wunderground v.1.15,2013-07-28 06:04:00,
2013-07-28 02:09:00,65.3,63.8,29.83,SSE,164,0.0,0.0,95,0.00,,,0.00,Wunderground v.1.15,2013-07-28 06:09:00,
2013-07-28 02:15:00,65.5,64.0,29.83,SSE,164,0.0,0.0,95,0.00,,,0.00,Wunderground v.1.15,2013-07-28 06:15:00,
2013-07-28 02:21:00,65.3,63.8,29.83,SSE,164,0.0,0.0,95,0.00,,,0.00,Wunderground v.1.15,2013-07-28 06:21:00,
2013-07-28 02:27:00,65.3,63.8,29.83,SSE,164,0.0,0.0,95,0.00,,,0.00,Wunderground v.1.15,2013-07-28 06:27:00,
2013-07-28 02:32:00,65.3,63.8,29.83,SSE,164,0.0,0.0,95,0.00,,,0.00,Wunderground v.1.15,2013-07-28 06:32:00,
2013-07-28 02:38:00,65.2,63.7,29.83,SSE,165,0.0,0.0,95,0.00,,,0.00,Wunderground v.1.15,2013-07-28 06:38:00,
2013-07-28 02:44:00,65.0,63.5,29.83,SSE,165,0.0,0.0,95,0.00,,,0.00,Wunderground v.1.15,2013-07-28 06:44:00,
2013-07-28 02:49:00,64.8,63.3,29.83,SSE,165,0.0,0.0,95,0.00,,,0.00,Wunderground v.1.15,2013-07-28 06:49:00,
2013-07-28 02:54:00,64.8,63.0,29.83,SSE,165,0.0,0.0,94,0.00,,,0.00,Wunderground v.1.15,2013-07-28 06:54:00,
2013-07-28 02:59:00,64.7,62.9,29.83,SSE,165,0.0,0.0,94,0.00,,,0.00,Wunderground v.1.15,2013-07-28 06:59:00,
2013-07-28 03:05:00,64.5,63.0,29.84,SSE,165,0.0,2.0,95,0.00,,,0.00,Wunderground v.1.15,2013-07-28 07:05:00,
2013-07-28 03:10:00,64.5,63.0,29.84,SSE,165,0.0,2.0,95,0.00,,,0.00,Wunderground v.1.15,2013-07-28 07:10:00,
2013-07-28 03:15:00,64.5,63.0,29.83,SSE,165,0.0,2.0,95,0.00,,,0.00,Wunderground v.1.15,2013-07-28 07:15:00,
2013-07-28 03:20:00,64.3,62.8,29.83,SSE,165,0.0,2.0,95,0.00,,,0.00,Wunderground v.1.15,2013-07-28 07:20:00,
2013-07-28 03:26:00,64.3,62.8,29.83,SSE,165,0.0,2.0,95,0.00,,,0.00,Wunderground v.1.15,2013-07-28 07:26:00,
2013-07-28 03:32:00,64.3,62.8,29.83,SSE,165,0.0,0.0,95,0.00,,,0.00,Wunderground v.1.15,2013-07-28 07:32:00,
2013-07-28 03:38:00,64.3,62.8,29.83,SSE,165,0.0,0.0,95,0.00,,,0.00,Wunderground v.1.15,2013-07-28 07:38:00,
2013-07-28 03:43:00,64.2,62.7,29.83,SSE,165,0.0,0.0,95,0.00,,,0.00,Wunderground v.1.15,2013-07-28 07:43:00,
2013-07-28 03:48:00,64.2,63.0,29.84,SSE,165,0.0,0.0,96,0.00,,,0.00,Wunderground v.1.15,2013-07-28 07:48:00,
2013-07-28 03:54:00,64.2,63.0,29.84,SSE,165,0.0,0.0,96,0.00,,,0.00,Wunderground v.1.15,2013-07-28 07:54:00,
2013-07-28 03:59:00,64.2,63.0,29.84,SSE,165,0.0,0.0,96,0.00,,,0.00,Wunderground v.1.15,2013-07-28 07:59:00,
2013-07-28 04:04:00,64.0,62.8,29.83,SSE,165,0.0,2.0,96,0.00,,,0.00,Wunderground v.1.15,2013-07-28 08:04:00,
2013-07-28 04:10:00,64.0,62.8,29.83,SSE,165,0.0,2.0,96,0.00,,,0.00,Wunderground v.1.15,2013-07-28 08:10:00,
2013-07-28 04:16:00,63.9,62.7,29.84,SSE,165,0.0,0.0,96,0.00,,,0.00,Wunderground v.1.15,2013-07-28 08:16:00,
2013-07-28 04:21:00,63.9,62.7,29.84,SSE,165,0.0,0.0,96,0.00,,,0.00,Wunderground v.1.15,2013-07-28 08:21:00,
2013-07-28 04:26:00,63.5,62.3,29.84,SSE,165,0.0,0.0,96,0.00,,,0.00,Wunderground v.1.15,2013-07-28 08:26:00,
2013-07-28 04:32:00,63.4,62.2,29.83,SSE,165,0.0,3.0,96,0.00,,,0.00,Wunderground v.1.15,2013-07-28 08:32:00,
2013-07-28 04:38:00,63.4,62.2,29.83,SSE,165,0.0,3.0,96,0.00,,,0.00,Wunderground v.1.15,2013-07-28 08:38:00,
2013-07-28 04:43:00,63.4,62.2,29.83,SSE,165,0.0,3.0,96,0.00,,,0.00,Wunderground v.1.15,2013-07-28 08:43:00,
2013-07-28 04:49:00,63.5,62.3,29.84,SSE,165,0.0,3.0,96,0.00,,,0.00,Wunderground v.1.15,2013-07-28 08:49:00,
2013-07-28 04:55:00,63.4,62.2,29.84,SSE,165,0.0,3.0,96,0.00,,,0.00,Wunderground v.1.15,2013-07-28 08:55:00,
2013-07-28 05:00:00,63.4,62.2,29.84,SSE,165,0.0,3.0,96,0.00,,,0.00,Wunderground v.1.15,2013-07-28 09:00:00,
2013-07-28 05:05:00,63.2,62.0,29.84,SSE,165,0.0,0.0,96,0.00,,,0.00,Wunderground v.1.15,2013-07-28 09:05:00,
2013-07-28 05:11:00,63.1,61.9,29.84,South,181,0.0,1.0,96,0.00,,,0.00,Wunderground v.1.15,2013-07-28 09:11:00,
2013-07-28 05:16:00,62.7,61.5,29.84,South,181,0.0,0.0,96,0.00,,,0.00,Wunderground v.1.15,2013-07-28 09:16:00,
2013-07-28 05:22:00,62.4,61.2,29.84,South,181,0.0,0.0,96,0.00,,,0.00,Wunderground v.1.15,2013-07-28 09:22:00,
2013-07-28 05:27:00,62.4,61.2,29.84,South,181,0.0,0.0,96,0.00,,,0.00,Wunderground v.1.15,2013-07-28 09:27:00,
2013-07-28 05:32:00,62.3,61.1,29.84,South,181,0.0,3.0,96,0.00,,,0.00,Wunderground v.1.15,2013-07-28 09:32:00,
2013-07-28 05:38:00,62.1,60.9,29.84,South,181,0.0,3.0,96,0.00,,,0.00,Wunderground v.1.15,2013-07-28 09:38:00,
2013-07-28 05:43:00,62.1,60.9,29.84,South,181,0.0,3.0,96,0.00,,,0.00,Wunderground v.1.15,2013-07-28 09:43:00,
2013-07-28 05:48:00,62.1,60.9,29.84,South,181,0.0,3.0,96,0.00,,,0.00,Wunderground v.1.15,2013-07-28 09:48:00,
2013-07-28 05:54:00,62.1,60.9,29.84,South,181,0.0,3.0,96,0.00,,,0.00,Wunderground v.1.15,2013-07-28 09:54:00,
2013-07-28 06:00:00,61.8,60.6,29.84,South,181,0.0,3.0,96,0.00,,,0.00,Wunderground v.1.15,2013-07-28 10:00:00,
2013-07-28 06:05:00,61.8,60.6,29.85,South,181,0.0,4.0,96,0.00,,,0.00,Wunderground v.1.15,2013-07-28 10:05:00,
2013-07-28 06:11:00,61.8,60.6,29.85,South,181,0.0,4.0,96,0.00,,,0.00,Wunderground v.1.15,2013-07-28 10:11:00,
2013-07-28 06:16:00,61.6,60.4,29.85,South,181,0.0,4.0,96,0.00,,,0.00,Wunderground v.1.15,2013-07-28 10:16:00,
2013-07-28 06:22:00,61.6,60.7,29.85,South,181,0.0,4.0,97,0.00,,,0.00,Wunderground v.1.15,2013-07-28 10:22:00,
2013-07-28 06:28:00,61.6,60.7,29.85,South,181,0.0,4.0,97,0.00,,,0.00,Wunderground v.1.15,2013-07-28 10:28:00,
2013-07-28 06:33:00,61.6,60.7,29.86,SW,224,0.0,1.0,97,0.00,,,0.00,Wunderground v.1.15,2013-07-28 10:33:00,
2013-07-28 06:38:00,61.6,60.7,29.86,SW,224,0.0,1.0,97,0.00,,,0.00,Wunderground v.1.15,2013-07-28 10:38:00,
2013-07-28 06:44:00,61.6,60.7,29.86,SW,224,0.0,1.0,97,0.00,,,0.00,Wunderground v.1.15,2013-07-28 10:44:00,
2013-07-28 06:50:00,61.8,60.9,29.86,SW,224,0.0,1.0,97,0.00,,,0.00,Wunderground v.1.15,2013-07-28 10:50:00,
2013-07-28 06:56:00,61.8,60.9,29.86,SW,224,0.0,1.0,97,0.00,,,0.00,Wunderground v.1.15,2013-07-28 10:56:00,
2013-07-28 07:02:00,62.0,61.1,29.86,SW,224,0.0,3.0,97,0.00,,,0.00,Wunderground v.1.15,2013-07-28 11:02:00,
2013-07-28 07:08:00,62.0,61.1,29.86,SW,224,0.0,3.0,97,0.00,,,0.00,Wunderground v.1.15,2013-07-28 11:08:00,
2013-07-28 07:14:00,62.1,61.2,29.86,SW,224,0.0,3.0,97,0.00,,,0.00,Wunderground v.1.15,2013-07-28 11:14:00,
2013-07-28 07:20:00,62.1,61.2,29.86,SW,224,0.0,3.0,97,0.00,,,0.00,Wunderground v.1.15,2013-07-28 11:20:00,
2013-07-28 07:25:00,62.1,61.2,29.86,SW,224,0.0,3.0,97,0.00,,,0.00,Wunderground v.1.15,2013-07-28 11:25:00,
2013-07-28 07:31:00,62.1,61.2,29.87,SW,224,0.0,3.0,97,0.00,,,0.00,Wunderground v.1.15,2013-07-28 11:31:00,
2013-07-28 07:37:00,62.1,61.2,29.87,SW,224,0.0,0.0,97,0.00,,,0.00,Wunderground v.1.15,2013-07-28 11:37:00,
2013-07-28 07:43:00,62.1,61.2,29.87,SW,224,0.0,0.0,97,0.00,,,0.00,Wunderground v.1.15,2013-07-28 11:43:00,
2013-07-28 07:48:00,62.3,61.4,29.87,SW,224,0.0,0.0,97,0.00,,,0.00,Wunderground v.1.15,2013-07-28 11:48:00,
2013-07-28 07:54:00,62.4,61.5,29.87,SW,224,0.0,0.0,97,0.00,,,0.00,Wunderground v.1.15,2013-07-28 11:54:00,
2013-07-28 07:59:00,62.4,61.2,29.87,SW,224,0.0,0.0,96,0.00,,,0.00,Wunderground v.1.15,2013-07-28 11:59:00,
2013-07-28 08:04:00,62.4,61.2,29.88,SW,224,0.0,2.0,96,0.00,,,0.00,Wunderground v.1.15,2013-07-28 12:04:00,
2013-07-28 08:10:00,62.6,61.4,29.88,SW,224,0.0,2.0,96,0.00,,,0.00,Wunderground v.1.15,2013-07-28 12:10:00,
2013-07-28 08:15:00,62.6,61.4,29.88,SW,224,0.0,2.0,96,0.00,,,0.00,Wunderground v.1.15,2013-07-28 12:15:00,
2013-07-28 08:21:00,62.6,61.4,29.88,SW,224,0.0,2.0,96,0.00,,,0.00,Wunderground v.1.15,2013-07-28 12:21:00,
2013-07-28 08:27:00,62.9,61.4,29.88,SW,224,0.0,2.0,95,0.00,,,0.00,Wunderground v.1.15,2013-07-28 12:27:00,
2013-07-28 08:32:00,63.1,61.6,29.89,SW,224,0.0,0.0,95,0.00,,,0.00,Wunderground v.1.15,2013-07-28 12:32:00,
2013-07-28 08:37:00,63.4,61.9,29.89,SW,224,0.0,0.0,95,0.00,,,0.00,Wunderground v.1.15,2013-07-28 12:37:00,
2013-07-28 08:42:00,63.7,62.2,29.89,SW,224,0.0,0.0,95,0.00,,,0.00,Wunderground v.1.15,2013-07-28 12:42:00,
2013-07-28 08:48:00,63.9,62.1,29.89,SW,224,0.0,0.0,94,0.00,,,0.00,Wunderground v.1.15,2013-07-28 12:48:00,
2013-07-28 08:53:00,63.9,61.8,29.89,SW,224,0.0,0.0,93,0.00,,,0.00,Wunderground v.1.15,2013-07-28 12:53:00,
2013-07-28 08:59:00,64.0,61.9,29.89,SW,224,0.0,1.0,93,0.00,,,0.00,Wunderground v.1.15,2013-07-28 12:59:00,
2013-07-28 09:05:00,64.3,62.2,29.89,SW,224,0.0,3.0,93,0.00,,,0.00,Wunderground v.1.15,2013-07-28 13:05:00,
2013-07-28 09:11:00,64.8,62.4,29.89,SW,224,0.0,3.0,92,0.00,,,0.00,Wunderground v.1.15,2013-07-28 13:11:00,
2013-07-28 09:16:00,65.2,62.8,29.88,SW,224,0.0,3.0,92,0.00,,,0.00,Wunderground v.1.15,2013-07-28 13:16:00,
2013-07-28 09:22:00,65.6,63.2,29.88,SW,224,0.0,3.0,92,0.00,,,0.00,Wunderground v.1.15,2013-07-28 13:22:00,
2013-07-28 09:27:00,65.8,62.8,29.88,WSW,249,0.0,3.0,90,0.00,,,0.00,Wunderground v.1.15,2013-07-28 13:27:00,
2013-07-28 09:33:00,66.1,62.8,29.89,WSW,249,0.0,3.0,89,0.00,,,0.00,Wunderground v.1.15,2013-07-28 13:33:00,
2013-07-28 09:38:00,66.4,63.1,29.89,WSW,249,0.0,3.0,89,0.00,,,0.00,Wunderground v.1.15,2013-07-28 13:38:00,
2013-07-28 09:43:00,66.9,63.2,29.89,WSW,250,0.0,3.0,88,0.00,,,0.00,Wunderground v.1.15,2013-07-28 13:43:00,
2013-07-28 09:48:00,67.1,63.1,29.89,WSW,250,0.0,3.0,87,0.00,,,0.00,Wunderground v.1.15,2013-07-28 13:48:00,
2013-07-28 09:54:00,67.6,63.3,29.89,WSW,250,0.0,3.0,86,0.00,,,0.00,Wunderground v.1.15,2013-07-28 13:54:00,
2013-07-28 09:59:00,67.9,63.2,29.89,WSW,250,0.0,3.0,85,0.00,,,0.00,Wunderground v.1.15,2013-07-28 13:59:00,
2013-07-28 10:05:00,68.6,63.6,29.89,WSW,250,0.0,1.0,84,0.00,,,0.00,Wunderground v.1.15,2013-07-28 14:05:00,
2013-07-28 10:12:00,68.8,62.7,29.89,WSW,250,0.0,1.0,81,0.00,,,0.00,Wunderground v.1.15,2013-07-28 14:12:00,
2013-07-28 10:17:00,69.1,63.7,29.88,WSW,250,0.0,1.0,83,0.00,,,0.00,Wunderground v.1.15,2013-07-28 14:17:00,
2013-07-28 10:22:00,69.3,63.6,29.88,WSW,250,0.0,1.0,82,0.00,,,0.00,Wunderground v.1.15,2013-07-28 14:22:00,
2013-07-28 10:28:00,69.6,62.4,29.88,WSW,250,0.0,1.0,78,0.00,,,0.00,Wunderground v.1.15,2013-07-28 14:28:00,
2013-07-28 10:33:00,69.8,61.1,29.89,WSW,250,0.0,3.0,74,0.00,,,0.00,Wunderground v.1.15,2013-07-28 14:33:00,
2013-07-28 10:39:00,70.1,61.8,29.89,SW,234,0.0,3.0,75,0.00,,,0.00,Wunderground v.1.15,2013-07-28 14:39:00,
2013-07-28 10:44:00,70.4,61.7,29.89,SW,233,0.0,3.0,74,0.00,,,0.00,Wunderground v.1.15,2013-07-28 14:44:00,
2013-07-28 10:50:00,70.9,63.0,29.89,SSW,196,0.0,3.0,76,0.00,,,0.00,Wunderground v.1.15,2013-07-28 14:50:00,
2013-07-28 10:55:00,71.5,63.5,29.89,SW,221,0.0,3.0,76,0.00,,,0.00,Wunderground v.1.15,2013-07-28 14:55:00,
2013-07-28 11:02:00,72.1,62.2,29.89,SW,221,0.0,3.0,71,0.00,,,0.00,Wunderground v.1.15,2013-07-28 15:02:00,
2013-07-28 11:08:00,72.5,62.2,29.89,West,264,1.0,3.0,70,0.00,,,0.00,Wunderground v.1.15,2013-07-28 15:08:00,
2013-07-28 11:13:00,72.5,61.7,29.89,West,262,1.0,3.0,69,0.00,,,0.00,Wunderground v.1.15,2013-07-28 15:13:00,
2013-07-28 11:19:00,72.7,63.1,29.89,West,262,0.0,3.0,72,0.00,,,0.00,Wunderground v.1.15,2013-07-28 15:19:00,
2013-07-28 11:24:00,73.0,63.8,29.89,West,262,0.0,3.0,73,0.00,,,0.00,Wunderground v.1.15,2013-07-28 15:24:00,
2013-07-28 11:29:00,73.0,61.4,29.89,West,262,0.0,3.0,67,0.00,,,0.00,Wunderground v.1.15,2013-07-28 15:29:00,
2013-07-28 11:35:00,73.2,62.8,29.89,West,262,0.0,4.0,70,0.00,,,0.00,Wunderground v.1.15,2013-07-28 15:35:00,
2013-07-28 11:40:00,73.7,63.3,29.89,West,262,0.0,4.0,70,0.00,,,0.00,Wunderground v.1.15,2013-07-28 15:40:00,
2013-07-28 11:46:00,74.4,64.4,29.89,West,262,0.0,4.0,71,0.00,,,0.00,Wunderground v.1.15,2013-07-28 15:46:00,
2013-07-28 11:51:00,74.2,63.0,29.89,WSW,242,1.0,4.0,68,0.00,,,0.00,Wunderground v.1.15,2013-07-28 15:51:00,
2013-07-28 11:56:00,74.6,62.1,29.89,SW,236,1.0,4.0,65,0.00,,,0.00,Wunderground v.1.15,2013-07-28 15:56:00,
2013-07-28 12:01:00,74.6,60.7,29.89,SSW,194,0.0,4.0,62,0.00,,,0.00,Wunderground v.1.15,2013-07-28 16:01:00,
2013-07-28 12:07:00,75.1,63.4,29.89,SW,227,0.0,6.0,67,0.00,,,0.00,Wunderground v.1.15,2013-07-28 16:07:00,
2013-07-28 12:13:00,75.4,61.0,29.89,South,189,1.0,6.0,61,0.00,,,0.00,Wunderground v.1.15,2013-07-28 16:13:00,
2013-07-28 12:18:00,76.0,62.0,29.89,SSW,206,1.0,6.0,62,0.00,,,0.00,Wunderground v.1.15,2013-07-28 16:18:00,
2013-07-28 12:24:00,76.3,61.4,29.89,SE,141,1.0,6.0,60,0.00,,,0.00,Wunderground v.1.15,2013-07-28 16:24:00,
2013-07-28 12:30:00,76.1,58.8,29.89,WSW,238,2.0,6.0,55,0.00,,,0.00,Wunderground v.1.15,2013-07-28 16:30:00,
2013-07-28 12:36:00,76.3,62.3,29.89,SW,227,2.0,10.0,62,0.00,,,0.00,Wunderground v.1.15,2013-07-28 16:36:00,
2013-07-28 12:42:00,76.8,58.9,29.89,SW,216,1.0,10.0,54,0.00,,,0.00,Wunderground v.1.15,2013-07-28 16:42:00,
2013-07-28 12:47:00,76.8,59.9,29.89,WSW,246,2.0,10.0,56,0.00,,,0.00,Wunderground v.1.15,2013-07-28 16:47:00,
2013-07-28 12:53:00,76.8,59.9,29.89,WSW,252,2.0,10.0,56,0.00,,,0.00,Wunderground v.1.15,2013-07-28 16:53:00,
2013-07-28 12:58:00,76.7,60.3,29.89,WSW,237,3.0,10.0,57,0.00,,,0.00,Wunderground v.1.15,2013-07-28 16:58:00,
2013-07-28 13:04:00,76.8,61.9,29.89,WSW,244,2.0,13.0,60,0.00,,,0.00,Wunderground v.1.15,2013-07-28 17:04:00,
2013-07-28 13:10:00,77.2,58.7,29.89,SW,225,1.0,13.0,53,0.00,,,0.00,Wunderground v.1.15,2013-07-28 17:10:00,
2013-07-28 13:15:00,77.2,59.8,29.89,WSW,244,2.0,13.0,55,0.00,,,0.00,Wunderground v.1.15,2013-07-28 17:15:00,
2013-07-28 13:21:00,77.0,58.0,29.89,SE,145,2.0,13.0,52,0.00,,,0.00,Wunderground v.1.15,2013-07-28 17:21:00,
2013-07-28 13:26:00,76.7,59.3,29.89,WSW,240,1.0,13.0,55,0.00,,,0.00,Wunderground v.1.15,2013-07-28 17:26:00,
2013-07-28 13:32:00,76.8,62.3,29.88,South,182,1.0,1.0,61,0.00,,,0.00,Wunderground v.1.15,2013-07-28 17:32:00,
2013-07-28 13:37:00,77.0,59.1,29.88,WSW,246,1.0,12.0,54,0.00,,,0.00,Wunderground v.1.15,2013-07-28 17:37:00,
2013-07-28 13:43:00,76.8,58.4,29.88,SW,232,1.0,12.0,53,0.00,,,0.00,Wunderground v.1.15,2013-07-28 17:43:00,
2013-07-28 13:48:00,76.7,58.8,29.88,West,265,2.0,12.0,54,0.00,,,0.00,Wunderground v.1.15,2013-07-28 17:48:00,
2013-07-28 13:54:00,76.7,61.8,29.88,WSW,244,1.0,12.0,60,0.00,,,0.00,Wunderground v.1.15,2013-07-28 17:54:00,
2013-07-28 13:59:00,77.4,61.5,29.88,SW,219,1.0,12.0,58,0.00,,,0.00,Wunderground v.1.15,2013-07-28 17:59:00,
2013-07-28 14:04:00,77.7,61.7,29.88,WSW,238,0.0,10.0,58,0.00,,,0.00,Wunderground v.1.15,2013-07-28 18:04:00,
2013-07-28 14:09:00,77.9,58.3,29.88,SSW,194,1.0,10.0,51,0.00,,,0.00,Wunderground v.1.15,2013-07-28 18:09:00,
2013-07-28 14:15:00,78.3,61.3,29.87,WSW,254,0.0,10.0,56,0.00,,,0.00,Wunderground v.1.15,2013-07-28 18:15:00,
2013-07-28 14:21:00,78.1,59.0,29.87,SSW,196,1.0,10.0,52,0.00,,,0.00,Wunderground v.1.15,2013-07-28 18:21:00,
2013-07-28 14:26:00,78.3,60.8,29.87,SSW,209,1.0,10.0,55,0.00,,,0.00,Wunderground v.1.15,2013-07-28 18:26:00,
2013-07-28 14:32:00,78.5,59.4,29.87,WSW,241,1.0,1.0,52,0.00,,,0.00,Wunderground v.1.15,2013-07-28 18:32:00,
2013-07-28 14:38:00,78.5,59.9,29.87,NNE,29,1.0,7.0,53,0.00,,,0.00,Wunderground v.1.15,2013-07-28 18:38:00,
2013-07-28 14:43:00,77.9,59.4,29.87,NNE,29,0.0,7.0,53,0.00,,,0.00,Wunderground v.1.15,2013-07-28 18:43:00,
2013-07-28 14:49:00,77.9,59.9,29.87,WSW,244,1.0,7.0,54,0.00,,,0.00,Wunderground v.1.15,2013-07-28 18:49:00,
2013-07-28 14:54:00,77.6,59.6,29.87,SW,235,1.0,7.0,54,0.00,,,0.00,Wunderground v.1.15,2013-07-28 18:54:00,
2013-07-28 15:00:00,78.1,57.4,29.87,SW,234,1.0,7.0,49,0.00,,,0.00,Wunderground v.1.15,2013-07-28 19:00:00,
2013-07-28 15:05:00,77.7,57.0,29.87,South,176,1.0,12.0,49,0.00,,,0.00,Wunderground v.1.15,2013-07-28 19:05:00,
2013-07-28 15:10:00,77.2,59.3,29.87,South,182,0.0,12.0,54,0.00,,,0.00,Wunderground v.1.15,2013-07-28 19:10:00,
2013-07-28 15:16:00,76.8,63.2,29.87,SW,221,0.0,12.0,63,0.00,,,0.00,Wunderground v.1.15,2013-07-28 19:16:00,
2013-07-28 15:21:00,77.4,59.5,29.87,SW,216,0.0,12.0,54,0.00,,,0.00,Wunderground v.1.15,2013-07-28 19:21:00,
2013-07-28 15:27:00,78.3,58.7,29.87,WSW,239,0.0,12.0,51,0.00,,,0.00,Wunderground v.1.15,2013-07-28 19:27:00,
2013-07-28 15:33:00,78.6,58.4,29.87,WSW,251,1.0,6.0,50,0.00,,,0.00,Wunderground v.1.15,2013-07-28 19:33:00,
2013-07-28 15:38:00,78.6,60.0,29.87,SW,221,1.0,6.0,53,0.00,,,0.00,Wunderground v.1.15,2013-07-28 19:38:00,
2013-07-28 15:43:00,78.6,59.5,29.87,WSW,245,0.0,6.0,52,0.00,,,0.00,Wunderground v.1.15,2013-07-28 19:43:00,
2013-07-28 15:49:00,79.0,60.4,29.86,SW,232,1.0,6.0,53,0.00,,,0.00,Wunderground v.1.15,2013-07-28 19:49:00,
2013-07-28 15:55:00,79.6,57.6,29.86,SW,223,1.0,6.0,47,0.00,,,0.00,Wunderground v.1.15,2013-07-28 19:55:00,
2013-07-28 16:00:00,79.9,56.7,29.86,West,263,0.0,6.0,45,0.00,,,0.00,Wunderground v.1.15,2013-07-28 20:00:00,
2013-07-28 16:06:00,79.8,54.0,29.86,NNW,331,0.0,12.0,41,0.00,,,0.00,Wunderground v.1.15,2013-07-28 20:06:00,
2013-07-28 16:11:00,79.6,53.1,29.86,West,263,1.0,12.0,40,0.00,,,0.00,Wunderground v.1.15,2013-07-28 20:11:00,
2013-07-28 16:16:00,79.4,52.3,29.86,North,5,1.0,12.0,39,0.00,,,0.00,Wunderground v.1.15,2013-07-28 20:16:00,
2013-07-28 16:22:00,79.6,51.8,29.86,SW,221,1.0,12.0,38,0.00,,,0.00,Wunderground v.1.15,2013-07-28 20:22:00,
2013-07-28 16:27:00,79.4,51.6,29.86,ESE,122,2.0,12.0,38,0.00,,,0.00,Wunderground v.1.15,2013-07-28 20:27:00,
2013-07-28 16:32:00,79.6,53.8,29.85,SW,215,1.0,1.0,41,0.00,,,0.00,Wunderground v.1.15,2013-07-28 20:32:00,
2013-07-28 16:38:00,79.8,54.7,29.85,SSW,196,1.0,12.0,42,0.00,,,0.00,Wunderground v.1.15,2013-07-28 20:38:00,
2013-07-28 16:44:00,80.1,53.6,29.85,SSW,210,0.0,12.0,40,0.00,,,0.00,Wunderground v.1.15,2013-07-28 20:44:00,
2013-07-28 16:49:00,80.3,54.5,29.86,SW,218,0.0,12.0,41,0.00,,,0.00,Wunderground v.1.15,2013-07-28 20:49:00,
2013-07-28 16:55:00,79.8,53.3,29.86,SW,223,2.0,12.0,40,0.00,,,0.00,Wunderground v.1.15,2013-07-28 20:55:00,
2013-07-28 17:01:00,79.6,53.1,29.86,SSW,207,2.0,12.0,40,0.00,,,0.00,Wunderground v.1.15,2013-07-28 21:01:00,
2013-07-28 17:07:00,79.6,55.8,29.86,SSW,202,1.0,12.0,44,0.00,,,0.00,Wunderground v.1.15,2013-07-28 21:07:00,
2013-07-28 17:13:00,79.8,55.3,29.86,WSW,248,1.0,12.0,43,0.00,,,0.00,Wunderground v.1.15,2013-07-28 21:13:00,
2013-07-28 17:18:00,80.1,54.9,29.87,SW,218,0.0,12.0,42,0.00,,,0.00,Wunderground v.1.15,2013-07-28 21:18:00,
2013-07-28 17:24:00,80.1,56.2,29.87,SW,232,1.0,12.0,44,0.00,,,0.00,Wunderground v.1.15,2013-07-28 21:24:00,
2013-07-28 17:30:00,79.8,55.3,29.87,SW,221,1.0,12.0,43,0.00,,,0.00,Wunderground v.1.15,2013-07-28 21:30:00,
2013-07-28 17:35:00,78.8,55.0,29.86,WSW,246,1.0,10.0,44,0.00,,,0.00,Wunderground v.1.15,2013-07-28 21:35:00,
2013-07-28 17:42:00,78.8,55.7,29.86,WSW,245,0.0,10.0,45,0.00,,,0.00,Wunderground v.1.15,2013-07-28 21:42:00,
2013-07-28 17:48:00,79.0,59.3,29.86,SW,229,0.0,10.0,51,0.00,,,0.00,Wunderground v.1.15,2013-07-28 21:48:00,
2013-07-28 17:53:00,78.6,54.9,29.86,SW,229,0.0,10.0,44,0.00,,,0.00,Wunderground v.1.15,2013-07-28 21:53:00,
2013-07-28 17:59:00,77.6,57.5,29.86,WSW,240,0.0,10.0,50,0.00,,,0.00,Wunderground v.1.15,2013-07-28 21:59:00,
2013-07-28 18:04:00,77.0,56.4,29.86,WSW,240,0.0,9.0,49,0.00,,,0.00,Wunderground v.1.15,2013-07-28 22:04:00,
2013-07-28 18:10:00,77.0,60.6,29.86,WSW,240,0.0,9.0,57,0.00,,,0.00,Wunderground v.1.15,2013-07-28 22:10:00,
2013-07-28 18:15:00,77.0,62.0,29.87,WSW,240,0.0,9.0,60,0.00,,,0.00,Wunderground v.1.15,2013-07-28 22:15:00,
2013-07-28 18:21:00,76.8,61.4,29.87,WSW,240,0.0,9.0,59,0.00,,,0.00,Wunderground v.1.15,2013-07-28 22:21:00,
2013-07-28 18:27:00,76.8,58.4,29.87,SW,215,0.0,9.0,53,0.00,,,0.00,Wunderground v.1.15,2013-07-28 22:27:00,
2013-07-28 18:33:00,77.6,60.7,29.87,SSW,206,1.0,6.0,56,0.00,,,0.00,Wunderground v.1.15,2013-07-28 22:33:00,
2013-07-28 18:38:00,77.9,60.4,29.87,WSW,238,0.0,6.0,55,0.00,,,0.00,Wunderground v.1.15,2013-07-28 22:38:00,
2013-07-28 18:43:00,77.7,59.2,29.87,WSW,238,0.0,6.0,53,0.00,,,0.00,Wunderground v.1.15,2013-07-28 22:43:00,
2013-07-28 18:49:00,76.8,57.8,29.87,SSW,205,1.0,6.0,52,0.00,,,0.00,Wunderground v.1.15,2013-07-28 22:49:00,
2013-07-28 18:55:00,76.1,61.7,29.87,WSW,244,1.0,6.0,61,0.00,,,0.00,Wunderground v.1.15,2013-07-28 22:55:00,
2013-07-28 19:01:00,75.4,61.0,29.87,WSW,244,0.0,6.0,61,0.00,,,0.00,Wunderground v.1.15,2013-07-28 23:01:00,
2013-07-28 19:07:00,74.9,61.5,29.87,WSW,244,0.0,10.0,63,0.00,,,0.00,Wunderground v.1.15,2013-07-28 23:07:00,
2013-07-28 19:13:00,74.2,60.3,29.87,WSW,244,0.0,10.0,62,0.00,,,0.00,Wunderground v.1.15,2013-07-28 23:13:00,
2013-07-28 19:18:00,73.7,62.1,29.88,WSW,244,0.0,10.0,67,0.00,,,0.00,Wunderground v.1.15,2013-07-28 23:18:00,
2013-07-28 19:24:00,72.8,61.2,29.88,WSW,244,0.0,10.0,67,0.00,,,0.00,Wunderground v.1.15,2013-07-28 23:24:00,
2013-07-28 19:30:00,72.3,61.1,29.88,WSW,244,0.0,10.0,68,0.00,,,0.00,Wunderground v.1.15,2013-07-28 23:30:00,
2013-07-28 19:37:00,71.6,60.9,29.88,WSW,244,0.0,0.0,69,0.00,,,0.00,Wunderground v.1.15,2013-07-28 23:37:00,
2013-07-28 19:43:00,71.1,60.8,29.88,WSW,244,0.0,0.0,70,0.00,,,0.00,Wunderground v.1.15,2013-07-28 23:43:00,
2013-07-28 19:49:00,70.8,60.9,29.89,WSW,244,0.0,0.0,71,0.00,,,0.00,Wunderground v.1.15,2013-07-28 23:49:00,
2013-07-28 19:54:00,70.8,62.1,29.89,WSW,244,0.0,0.0,74,0.00,,,0.00,Wunderground v.1.15,2013-07-28 23:54:00,
2013-07-28 20:00:00,70.4,61.7,29.89,WSW,244,0.0,0.0,74,0.00,,,0.00,Wunderground v.1.15,2013-07-29 00:00:00,
2013-07-28 20:05:00,70.3,61.6,29.89,WSW,244,0.0,0.0,74,0.00,,,0.00,Wunderground v.1.15,2013-07-29 00:05:00,
2013-07-28 20:10:00,70.1,62.2,29.89,WSW,244,0.0,0.0,76,0.00,,,0.00,Wunderground v.1.15,2013-07-29 00:10:00,
2013-07-28 20:16:00,69.9,61.2,29.90,WSW,244,0.0,0.0,74,0.00,,,0.00,Wunderground v.1.15,2013-07-29 00:16:00,
2013-07-28 20:22:00,69.9,61.6,29.90,WSW,244,0.0,0.0,75,0.00,,,0.00,Wunderground v.1.15,2013-07-29 00:22:00,
2013-07-28 20:28:00,69.8,61.5,29.90,WSW,244,0.0,0.0,75,0.00,,,0.00,Wunderground v.1.15,2013-07-29 00:28:00,
2013-07-28 20:33:00,69.8,61.5,29.90,WSW,244,0.0,0.0,75,0.00,,,0.00,Wunderground v.1.15,2013-07-29 00:33:00,
2013-07-28 20:38:00,69.6,61.7,29.90,WSW,244,0.0,0.0,76,0.00,,,0.00,Wunderground v.1.15,2013-07-29 00:38:00,
2013-07-28 20:44:00,69.3,61.8,29.90,WSW,244,0.0,0.0,77,0.00,,,0.00,Wunderground v.1.15,2013-07-29 00:44:00,
2013-07-28 20:49:00,68.8,61.7,29.90,WSW,244,0.0,0.0,78,0.00,,,0.00,Wunderground v.1.15,2013-07-29 00:49:00,
2013-07-28 20:54:00,68.4,61.6,29.90,WSW,244,0.0,0.0,79,0.00,,,0.00,Wunderground v.1.15,2013-07-29 00:54:00,
2013-07-28 21:00:00,68.1,61.3,29.90,WSW,244,0.0,0.0,79,0.00,,,0.00,Wunderground v.1.15,2013-07-29 01:00:00,
2013-07-28 21:06:00,67.8,61.4,29.91,WSW,244,0.0,0.0,80,0.00,,,0.00,Wunderground v.1.15,2013-07-29 01:06:00,
2013-07-28 21:11:00,67.6,61.2,29.91,WSW,244,0.0,0.0,80,0.00,,,0.00,Wunderground v.1.15,2013-07-29 01:11:00,
2013-07-28 21:16:00,67.4,61.7,29.91,WSW,244,0.0,0.0,82,0.00,,,0.00,Wunderground v.1.15,2013-07-29 01:16:00,
2013-07-28 21:22:00,67.3,61.6,29.91,WSW,244,0.0,0.0,82,0.00,,,0.00,Wunderground v.1.15,2013-07-29 01:22:00,
2013-07-28 21:27:00,66.9,61.2,29.91,WSW,244,0.0,0.0,82,0.00,,,0.00,Wunderground v.1.15,2013-07-29 01:27:00,
2013-07-28 21:34:00,66.6,61.6,29.92,WSW,244,0.0,0.0,84,0.00,,,0.00,Wunderground v.1.15,2013-07-29 01:34:00,
2013-07-28 21:39:00,66.4,61.4,29.92,WSW,244,0.0,0.0,84,0.00,,,0.00,Wunderground v.1.15,2013-07-29 01:39:00,
2013-07-28 21:44:00,66.3,61.7,29.92,WSW,244,0.0,0.0,85,0.00,,,0.00,Wunderground v.1.15,2013-07-29 01:44:00,
2013-07-28 21:50:00,66.1,61.8,29.93,WSW,244,0.0,0.0,86,0.00,,,0.00,Wunderground v.1.15,2013-07-29 01:50:00,
2013-07-28 21:55:00,66.0,61.7,29.93,WSW,244,0.0,0.0,86,0.00,,,0.00,Wunderground v.1.15,2013-07-29 01:55:00,
2013-07-28 22:01:00,65.8,61.8,29.93,WSW,244,0.0,0.0,87,0.00,,,0.00,Wunderground v.1.15,2013-07-29 02:01:00,
2013-07-28 22:08:00,65.6,61.3,29.93,WSW,244,0.0,0.0,86,0.00,,,0.00,Wunderground v.1.15,2013-07-29 02:08:00,
2013-07-28 22:13:00,65.5,61.5,29.93,WSW,244,0.0,0.0,87,0.00,,,0.00,Wunderground v.1.15,2013-07-29 02:13:00,
2013-07-28 22:19:00,65.3,61.3,29.94,WSW,244,0.0,0.0,87,0.00,,,0.00,Wunderground v.1.15,2013-07-29 02:19:00,
2013-07-28 22:25:00,65.2,61.6,29.94,WSW,244,0.0,0.0,88,0.00,,,0.00,Wunderground v.1.15,2013-07-29 02:25:00,
2013-07-28 22:30:00,65.0,61.4,29.95,WSW,244,0.0,0.0,88,0.00,,,0.00,Wunderground v.1.15,2013-07-29 02:30:00,
2013-07-28 22:36:00,64.8,61.5,29.95,WSW,244,0.0,0.0,89,0.00,,,0.00,Wunderground v.1.15,2013-07-29 02:36:00,
2013-07-28 22:41:00,64.7,61.4,29.95,WSW,244,0.0,0.0,89,0.00,,,0.00,Wunderground v.1.15,2013-07-29 02:41:00,
2013-07-28 22:47:00,64.5,61.2,29.95,WSW,244,0.0,0.0,89,0.00,,,0.00,Wunderground v.1.15,2013-07-29 02:47:00,
2013-07-28 22:52:00,64.3,61.0,29.95,WSW,244,0.0,0.0,89,0.00,,,0.00,Wunderground v.1.15,2013-07-29 02:52:00,
2013-07-28 22:58:00,64.2,61.2,29.95,WSW,244,0.0,0.0,90,0.00,,,0.00,Wunderground v.1.15,2013-07-29 02:58:00,
2013-07-28 23:05:00,64.2,61.2,29.95,WSW,244,0.0,0.0,90,0.00,,,0.00,Wunderground v.1.15,2013-07-29 03:05:00,
2013-07-28 23:10:00,64.0,61.0,29.95,WSW,244,0.0,0.0,90,0.00,,,0.00,Wunderground v.1.15,2013-07-29 03:10:00,
2013-07-28 23:16:00,63.7,60.7,29.95,WSW,244,0.0,0.0,90,0.00,,,0.00,Wunderground v.1.15,2013-07-29 03:16:00,
2013-07-28 23:22:00,63.5,60.5,29.95,WSW,244,0.0,0.0,90,0.00,,,0.00,Wunderground v.1.15,2013-07-29 03:22:00,
2013-07-28 23:27:00,63.4,60.4,29.95,WSW,244,0.0,0.0,90,0.00,,,0.00,Wunderground v.1.15,2013-07-29 03:27:00,
2013-07-28 23:33:00,63.2,60.5,29.95,WSW,244,0.0,0.0,91,0.00,,,0.00,Wunderground v.1.15,2013-07-29 03:33:00,
2013-07-28 23:38:00,63.1,60.4,29.95,WSW,244,0.0,0.0,91,0.00,,,0.00,Wunderground v.1.15,2013-07-29 03:38:00,
2013-07-28 23:46:00,62.7,60.0,29.95,WSW,244,0.0,0.0,91,0.00,,,0.00,Wunderground v.1.15,2013-07-29 03:46:00,
2013-07-28 23:53:00,62.6,60.2,29.95,WSW,244,0.0,0.0,92,0.00,,,0.00,Wunderground v.1.15,2013-07-29 03:53:00,
2013-07-28 23:59:00,62.4,60.0,29.95,WSW,244,0.0,0.0,92,0.00,,,0.00,Wunderground v.1.15,2013-07-29 03:59:00,